weather.gov     
National Weather Service

Terminal Aerodrome Forecast
NWS Homepage
This page is being discontinued on March 12, 2014.
The same data is available at this site. Please update your bookmarks.
Thank you, and we apologize for the inconvenience.
Please send an email to SR-SRH.Webmaster@noaa.gov with any concerns.


Current Version
Previous Version:    01  02  03  04  05  06  07  08  09  10  11  12  13  14  15  16  17  18  19  20  21  22  23  24  25  26  27  28  
[Printable]
730
FTUS43 KDVN 232200 AAA
TAFBRL
TAF AMD
KBRL 232200Z 2322/2418 10010KT P6SM -RA OVC100
     FM240000 13009KT P6SM BKN120
     FM241200 16016G22KT P6SM VCSH OVC080
     FM241500 16016G24KT 5SM -RA OVC050=


730
FTUS43 KDVN 232200 AAA
TAFBRL
TAF AMD
KBRL 232200Z 2322/2418 10010KT P6SM -RA OVC100
     FM240000 13009KT P6SM BKN120
     FM241200 16016G22KT P6SM VCSH OVC080
     FM241500 16016G24KT 5SM -RA OVC050=




U.S. Dept. of Commerce
NOAA National Weather Service
1325 East West Highway
Silver Spring, MD 20910
E-mail: w-nws.webmaster@noaa.gov
Page last modified: May 16, 2007
NATIONAL WEATHER SERVICE: for Safety, for Work, for Fun - FOR LIFE